Time;durP1;ratioP1;P1;durP2;ratioP2;P2;SDS_P1;SDS_P2;PMS_P1;PMS_P2;Temp;Humidity;BMP_temperature;BMP_pressure;BME280_temperature;BME280_humidity;BME280_pressure;Samples;Min_cycle;Max_cycle;Signal;HPM_P1;HPM_P2
2022/01/05 00:00:24;;;;;;;8.67;2.77;;;6.40;99.90;;;;;;5028738;28;20197;-23
2022/01/05 00:02:52;;;;;;;8.57;2.00;;;6.40;99.90;;;;;;5029779;28;20362;-23
2022/01/05 00:05:19;;;;;;;12.40;2.60;;;6.40;99.90;;;;;;5029797;28;20193;-23
2022/01/05 00:07:48;;;;;;;9.63;2.47;;;6.40;99.90;;;;;;5030101;28;20197;-23
2022/01/05 00:10:20;;;;;;;8.33;2.50;;;6.30;99.90;;;;;;5030056;28;20208;-23
2022/01/05 00:12:48;;;;;;;8.37;2.47;;;6.30;99.90;;;;;;5029747;28;20212;-23
2022/01/05 00:15:15;;;;;;;11.00;2.10;;;6.30;99.90;;;;;;5029971;28;20219;-23
2022/01/05 00:17:42;;;;;;;14.50;2.40;;;6.30;99.90;;;;;;5030321;28;20232;-23
2022/01/05 00:20:10;;;;;;;10.73;2.30;;;6.20;99.90;;;;;;5030023;28;20205;-23
2022/01/05 00:22:38;;;;;;;8.40;2.47;;;6.20;99.90;;;;;;5030026;28;20204;-23
2022/01/05 00:25:06;;;;;;;8.10;2.33;;;6.10;99.90;;;;;;5029704;28;20204;-26
2022/01/05 00:27:33;;;;;;;7.77;2.20;;;6.10;99.90;;;;;;5028976;28;20737;-26
2022/01/05 00:30:00;;;;;;;13.17;2.60;;;6.10;99.90;;;;;;5030138;28;20189;-26
2022/01/05 00:32:28;;;;;;;9.43;2.23;;;6.00;99.90;;;;;;5026521;28;20208;-26
2022/01/05 00:34:55;;;;;;;7.93;2.63;;;6.10;99.90;;;;;;5024480;28;20213;-26
2022/01/05 00:37:22;;;;;;;7.17;2.13;;;6.00;99.90;;;;;;5029936;28;20290;-26
2022/01/05 00:39:49;;;;;;;7.17;2.47;;;6.00;99.90;;;;;;5029520;28;20205;-26
2022/01/05 00:42:16;;;;;;;8.83;2.60;;;5.90;99.90;;;;;;5030026;28;20197;-26
2022/01/05 00:44:44;;;;;;;9.43;2.63;;;5.90;99.90;;;;;;5029457;28;20225;-26
2022/01/05 00:47:11;;;;;;;15.17;2.87;;;5.80;99.90;;;;;;5028115;28;20212;-26
2022/01/05 00:49:38;;;;;;;10.73;2.60;;;5.80;99.90;;;;;;5020375;28;20237;-26
2022/01/05 00:52:06;;;;;;;12.20;2.77;;;5.80;99.90;;;;;;5026433;28;20623;-26
2022/01/05 00:54:34;;;;;;;9.47;2.33;;;5.70;99.90;;;;;;5029230;28;20262;-26
2022/01/05 00:57:01;;;;;;;8.33;2.57;;;5.70;99.90;;;;;;5029551;28;20220;-26
2022/01/05 00:59:30;;;;;;;9.40;2.07;;;5.60;99.90;;;;;;5028012;28;20201;-26
2022/01/05 01:01:59;;;;;;;6.80;2.10;;;5.60;99.90;;;;;;5029865;28;20696;-26
2022/01/05 01:04:26;;;;;;;6.70;1.97;;;5.60;99.90;;;;;;5029231;28;20247;-26
2022/01/05 01:06:53;;;;;;;7.80;2.17;;;5.50;99.90;;;;;;5029133;28;20212;-26
2022/01/05 01:09:26;;;;;;;7.80;2.20;;;5.50;99.90;;;;;;5029674;28;20211;-26
2022/01/05 01:11:56;;;;;;;6.27;2.10;;;5.50;99.90;;;;;;5028717;28;20727;-26
2022/01/05 01:14:24;;;;;;;11.77;2.43;;;5.40;99.90;;;;;;5025001;28;20209;-25
2022/01/05 01:16:51;;;;;;;7.27;2.30;;;5.50;99.90;;;;;;5029944;28;20260;-26
2022/01/05 01:19:18;;;;;;;7.37;2.10;;;5.40;99.90;;;;;;5029036;28;20565;-26
2022/01/05 01:21:47;;;;;;;5.87;1.90;;;5.40;99.90;;;;;;5029290;28;20205;-26
2022/01/05 01:24:15;;;;;;;9.77;2.30;;;5.40;99.90;;;;;;5028557;28;20210;-26
2022/01/05 01:26:42;;;;;;;11.63;2.43;;;5.40;99.90;;;;;;5029201;28;20283;-26
2022/01/05 01:29:10;;;;;;;8.20;2.50;;;5.30;99.90;;;;;;5028245;28;20209;-25
2022/01/05 01:31:39;;;;;;;8.30;2.10;;;5.30;99.90;;;;;;5029453;28;20190;-25
2022/01/05 01:34:09;;;;;;;9.17;1.90;;;5.30;99.90;;;;;;5028736;28;20671;-26
2022/01/05 01:36:36;;;;;;;6.13;2.10;;;5.20;99.90;;;;;;5029178;28;20197;-26
2022/01/05 01:39:05;;;;;;;8.03;2.20;;;5.20;99.90;;;;;;5044275;28;20350;-26
2022/01/05 01:41:32;;;;;;;11.10;2.40;;;5.20;99.90;;;;;;5029333;28;20221;-26
2022/01/05 01:44:02;;;;;;;11.13;2.70;;;5.20;99.90;;;;;;5028261;28;20212;-26
2022/01/05 01:46:31;;;;;;;9.77;2.50;;;5.20;99.90;;;;;;5017934;28;20656;-26
2022/01/05 01:48:58;;;;;;;10.43;2.17;;;5.10;99.90;;;;;;5028903;28;20660;-26
2022/01/05 01:51:28;;;;;;;8.63;2.43;;;5.10;99.90;;;;;;5028927;28;20205;-26
2022/01/05 01:53:55;;;;;;;10.57;2.83;;;5.10;99.90;;;;;;5028458;28;20219;-26
2022/01/05 01:56:24;;;;;;;9.37;2.70;;;5.10;99.90;;;;;;5028311;28;20271;-25
2022/01/05 01:58:52;;;;;;;12.70;2.77;;;5.10;99.90;;;;;;5026666;28;20221;-26
2022/01/05 02:01:22;;;;;;;9.73;2.00;;;5.10;99.90;;;;;;5027736;28;20205;-26
2022/01/05 02:03:49;;;;;;;9.87;2.50;;;5.10;99.90;;;;;;5028599;28;20252;-25
2022/01/05 02:06:16;;;;;;;9.63;2.80;;;5.10;99.90;;;;;;5027955;28;20280;-26
2022/01/05 02:08:46;;;;;;;10.93;2.40;;;5.00;99.90;;;;;;5027258;28;20209;-26
2022/01/05 02:11:14;;;;;;;11.37;2.50;;;5.00;99.90;;;;;;5027349;28;20220;-25
2022/01/05 02:13:44;;;;;;;8.60;2.50;;;5.00;99.90;;;;;;5027760;28;20617;-26
2022/01/05 02:16:13;;;;;;;14.33;3.07;;;5.10;99.90;;;;;;5027655;28;20201;-26
2022/01/05 02:21:10;;;;;;;16.17;2.73;;;5.00;99.90;;;;;;5028028;28;20243;-26
2022/01/05 02:23:38;;;;;;;8.80;2.53;;;5.00;99.90;;;;;;5028524;28;20659;-26
2022/01/05 02:26:11;;;;;;;11.17;2.30;;;5.00;99.90;;;;;;5026984;28;20193;-26
2022/01/05 02:28:40;;;;;;;11.30;2.83;;;5.00;99.90;;;;;;5022391;28;20711;-26
2022/01/05 02:31:07;;;;;;;10.00;2.37;;;5.00;99.90;;;;;;5027120;28;20205;-26
2022/01/05 02:33:35;;;;;;;8.43;2.50;;;5.00;99.90;;;;;;5028010;28;20204;-26
2022/01/05 02:36:04;;;;;;;14.00;2.70;;;5.00;99.90;;;;;;5058944;28;20285;-26
2022/01/05 02:38:34;;;;;;;10.03;2.37;;;4.90;99.90;;;;;;5022027;28;20695;-26
2022/01/05 02:41:10;;;;;;;9.20;2.33;;;4.90;99.90;;;;;;5024066;28;20197;-25
2022/01/05 02:43:40;;;;;;;8.03;2.40;;;4.90;99.90;;;;;;5027297;28;20201;-26
2022/01/05 02:46:16;;;;;;;11.93;2.73;;;4.90;99.90;;;;;;5027399;28;20251;-26
2022/01/05 02:48:49;;;;;;;8.07;2.07;;;4.90;99.90;;;;;;5023793;28;20586;-26
2022/01/05 02:51:17;;;;;;;9.33;2.80;;;4.90;99.90;;;;;;5027311;28;20312;-26
2022/01/05 02:53:44;;;;;;;7.90;2.27;;;4.90;99.90;;;;;;5027897;28;20213;-26
2022/01/05 02:56:12;;;;;;;8.17;2.20;;;4.90;99.90;;;;;;5027069;28;20714;-26
2022/01/05 02:58:40;;;;;;;8.90;2.10;;;4.90;99.90;;;;;;5026924;28;20251;-26
2022/01/05 03:01:09;;;;;;;6.90;2.00;;;4.90;99.90;;;;;;5018994;28;20656;-25
2022/01/05 03:03:39;;;;;;;12.07;2.67;;;4.90;99.90;;;;;;5027808;28;20263;-26
2022/01/05 03:06:06;;;;;;;8.77;2.50;;;4.80;99.90;;;;;;5027577;28;20196;-26
2022/01/05 03:08:33;;;;;;;16.27;2.20;;;4.80;99.90;;;;;;5025687;28;20557;-26
2022/01/05 03:11:00;;;;;;;14.00;2.90;;;4.80;99.90;;;;;;5020023;28;20224;-26
2022/01/05 03:13:28;;;;;;;12.23;2.47;;;4.80;99.90;;;;;;5027616;28;20193;-26
2022/01/05 03:15:56;;;;;;;8.00;2.67;;;4.80;99.90;;;;;;5025766;28;20213;-26
2022/01/05 03:18:23;;;;;;;8.80;2.20;;;4.70;99.90;;;;;;5023291;28;20217;-26
2022/01/05 03:20:53;;;;;;;10.10;2.43;;;4.70;99.90;;;;;;5027169;28;20634;-25
2022/01/05 03:23:22;;;;;;;11.43;2.60;;;4.70;99.90;;;;;;5057845;28;20193;-26
2022/01/05 03:25:50;;;;;;;12.27;2.17;;;4.60;99.90;;;;;;5024940;28;20220;-26
2022/01/05 03:28:17;;;;;;;7.67;2.57;;;4.70;99.90;;;;;;5020022;28;20212;-26
2022/01/05 03:30:47;;;;;;;7.53;2.40;;;4.60;99.90;;;;;;5025956;28;20258;-26
2022/01/05 03:33:20;;;;;;;8.10;2.47;;;4.60;99.90;;;;;;5021690;28;20657;-26
2022/01/05 03:35:48;;;;;;;8.73;2.30;;;4.60;99.90;;;;;;5027023;28;20204;-26
2022/01/05 03:38:17;;;;;;;8.53;2.53;;;4.60;99.90;;;;;;5041987;28;20224;-25
2022/01/05 03:40:46;;;;;;;10.63;2.60;;;4.60;99.90;;;;;;5026783;28;20291;-26
2022/01/05 03:43:15;;;;;;;11.03;2.30;;;4.60;99.90;;;;;;5016929;28;20201;-26
2022/01/05 03:45:42;;;;;;;9.90;2.40;;;4.50;99.90;;;;;;5023307;28;20597;-26
2022/01/05 03:48:12;;;;;;;7.10;2.43;;;4.50;99.90;;;;;;5026815;28;20634;-26
2022/01/05 03:50:43;;;;;;;13.50;3.07;;;4.50;99.90;;;;;;5024851;28;20247;-26
2022/01/05 03:53:11;;;;;;;9.70;2.43;;;4.50;99.90;;;;;;5026668;28;20221;-25
2022/01/05 03:55:42;;;;;;;10.80;2.40;;;4.50;99.90;;;;;;5025016;28;20200;-26
2022/01/05 03:58:10;;;;;;;7.57;2.63;;;4.40;99.90;;;;;;5026287;28;20275;-23
2022/01/05 04:00:41;;;;;;;10.73;2.50;;;4.40;99.90;;;;;;5025588;28;20626;-23
2022/01/05 04:03:09;;;;;;;8.63;2.37;;;4.40;99.90;;;;;;5024996;28;20207;-23
2022/01/05 04:05:36;;;;;;;8.70;2.57;;;4.40;99.90;;;;;;5022299;28;20209;-23
2022/01/05 04:08:04;;;;;;;18.33;3.20;;;4.40;99.90;;;;;;5024895;28;20229;-23
2022/01/05 04:10:31;;;;;;;13.23;2.90;;;4.40;99.90;;;;;;5025687;28;20636;-23
2022/01/05 04:12:59;;;;;;;9.63;2.70;;;4.40;99.90;;;;;;5026110;28;20201;-23
2022/01/05 04:15:26;;;;;;;8.17;2.73;;;4.30;99.90;;;;;;5026505;28;20284;-23
2022/01/05 04:17:53;;;;;;;11.07;2.47;;;4.30;99.90;;;;;;5026282;28;20263;-23
2022/01/05 04:20:20;;;;;;;12.07;2.90;;;4.30;99.90;;;;;;5026278;28;20228;-23
2022/01/05 04:22:48;;;;;;;11.37;2.70;;;4.30;99.90;;;;;;5057539;28;20593;-23
2022/01/05 04:25:20;;;;;;;8.93;2.33;;;4.30;99.90;;;;;;5025793;28;20205;-23
2022/01/05 04:27:47;;;;;;;12.57;2.73;;;4.30;99.90;;;;;;5023916;28;20255;-23
2022/01/05 04:30:15;;;;;;;15.43;3.20;;;4.30;99.90;;;;;;5025859;28;20719;-23
2022/01/05 04:32:44;;;;;;;14.03;2.70;;;4.30;99.90;;;;;;5026127;28;20251;-23
2022/01/05 04:35:31;;;;;;;11.13;3.47;;;4.30;99.90;;;;;;5027046;28;20213;-23
2022/01/05 04:37:58;;;;;;;12.10;2.67;;;4.20;99.90;;;;;;5029340;28;20236;-23
2022/01/05 04:40:30;;;;;;;15.57;2.40;;;4.20;99.90;;;;;;5029765;28;20687;-23
2022/01/05 04:42:58;;;;;;;9.77;2.27;;;4.20;99.90;;;;;;5029501;28;20219;-23
2022/01/05 04:45:28;;;;;;;11.60;3.03;;;4.20;99.90;;;;;;5029289;28;20197;-23
2022/01/05 04:47:55;;;;;;;9.63;2.23;;;4.20;99.90;;;;;;5061061;28;20707;-23
2022/01/05 04:50:22;;;;;;;12.83;2.67;;;4.20;99.90;;;;;;5029811;28;20291;-23
2022/01/05 04:52:49;;;;;;;12.87;2.60;;;4.20;99.90;;;;;;5028024;28;20209;-23
2022/01/05 04:55:16;;;;;;;9.70;2.40;;;4.20;99.90;;;;;;5027284;28;20755;-23
2022/01/05 04:57:44;;;;;;;10.63;2.37;;;4.20;99.90;;;;;;5026996;28;20311;-23
2022/01/05 05:00:11;;;;;;;11.13;2.73;;;4.20;99.90;;;;;;5014723;28;20206;-23
2022/01/05 05:02:38;;;;;;;8.67;2.37;;;4.20;99.90;;;;;;5028689;28;20850;-23
2022/01/05 05:05:06;;;;;;;9.80;2.80;;;4.20;99.90;;;;;;5029804;28;20244;-23
2022/01/05 05:07:33;;;;;;;13.83;2.97;;;4.20;99.90;;;;;;5027970;28;20209;-23
2022/01/05 05:10:04;;;;;;;11.17;2.70;;;4.20;99.90;;;;;;5029341;28;20205;-23
2022/01/05 05:12:31;;;;;;;16.93;3.40;;;4.20;99.90;;;;;;5028624;28;20749;-23
2022/01/05 05:14:59;;;;;;;7.97;2.30;;;4.20;99.90;;;;;;5028872;28;20247;-23
2022/01/05 05:17:26;;;;;;;10.50;2.80;;;4.20;99.90;;;;;;5029145;28;20605;-23
2022/01/05 05:19:53;;;;;;;9.53;2.77;;;4.20;99.90;;;;;;5029042;28;20226;-23
2022/01/05 05:22:22;;;;;;;14.73;2.80;;;4.20;99.90;;;;;;5028768;28;20292;-23
2022/01/05 05:24:50;;;;;;;14.83;2.80;;;4.20;99.90;;;;;;5029547;28;20205;-23
2022/01/05 05:27:17;;;;;;;14.30;3.00;;;4.20;99.90;;;;;;5028901;28;20208;-23
2022/01/05 05:29:47;;;;;;;11.57;2.53;;;4.20;99.90;;;;;;5025720;28;20205;-23
2022/01/05 05:32:14;;;;;;;11.67;2.83;;;4.20;99.90;;;;;;5029173;28;20209;-23
2022/01/05 05:34:41;;;;;;;10.23;2.57;;;4.20;99.90;;;;;;5029162;28;20697;-23
2022/01/05 05:37:10;;;;;;;12.60;2.77;;;4.10;99.90;;;;;;5028639;28;20660;-23
2022/01/05 05:39:40;;;;;;;9.93;2.60;;;4.10;99.90;;;;;;5026941;28;20219;-23
2022/01/05 05:42:08;;;;;;;10.33;2.50;;;4.20;99.90;;;;;;5029024;28;20679;-23
2022/01/05 05:44:35;;;;;;;9.70;2.53;;;4.10;99.90;;;;;;5027732;28;20205;-23
2022/01/05 05:47:11;;;;;;;11.97;2.57;;;4.10;99.90;;;;;;5027486;28;20583;-23
2022/01/05 05:49:38;;;;;;;7.00;2.10;;;4.10;99.90;;;;;;5021920;28;20241;-23
2022/01/05 05:52:06;;;;;;;8.80;2.50;;;4.10;99.90;;;;;;5029163;28;20212;-23
2022/01/05 05:54:33;;;;;;;12.77;2.77;;;4.20;99.90;;;;;;5043296;28;20254;-23
2022/01/05 05:57:01;;;;;;;10.67;2.60;;;4.20;99.90;;;;;;5028676;28;20204;-23
2022/01/05 05:59:28;;;;;;;10.90;2.50;;;4.10;99.90;;;;;;5026395;28;20237;-23
2022/01/05 06:01:55;;;;;;;15.53;2.70;;;4.20;99.90;;;;;;5028800;28;20586;-23
2022/01/05 06:04:25;;;;;;;10.43;2.60;;;4.20;99.90;;;;;;5028077;28;20686;-24
2022/01/05 06:06:52;;;;;;;17.20;2.80;;;4.20;99.90;;;;;;5028040;28;20200;-23
2022/01/05 06:09:19;;;;;;;11.20;2.67;;;4.20;99.90;;;;;;5056686;28;20193;-24
2022/01/05 06:11:46;;;;;;;7.13;2.17;;;4.20;99.90;;;;;;5032144;28;20205;-24
2022/01/05 06:14:14;;;;;;;10.50;1.90;;;4.10;99.90;;;;;;5027353;28;20207;-23
2022/01/05 06:16:43;;;;;;;9.43;2.50;;;4.20;99.90;;;;;;5028204;28;20205;-23
2022/01/05 06:19:12;;;;;;;10.40;2.43;;;4.20;99.90;;;;;;5026992;28;20228;-24
2022/01/05 06:21:40;;;;;;;8.73;2.80;;;4.20;99.90;;;;;;5027688;28;20197;-23
2022/01/05 06:24:07;;;;;;;8.17;2.27;;;4.20;99.90;;;;;;5025205;28;20233;-23
2022/01/05 06:26:37;;;;;;;9.80;2.43;;;4.20;99.90;;;;;;5028279;28;20207;-23
2022/01/05 06:29:04;;;;;;;10.37;2.70;;;4.20;99.90;;;;;;5024090;28;20319;-23
2022/01/05 06:31:32;;;;;;;12.60;2.90;;;4.30;99.90;;;;;;5020185;28;20200;-23
2022/01/05 06:33:59;;;;;;;8.37;2.13;;;4.30;99.90;;;;;;5058863;28;20667;-23
2022/01/05 06:36:26;;;;;;;12.07;2.67;;;4.30;99.90;;;;;;5027768;28;20231;-23
2022/01/05 06:38:53;;;;;;;10.30;2.17;;;4.40;99.90;;;;;;5026509;28;20768;-23
2022/01/05 06:41:23;;;;;;;8.20;2.20;;;4.40;99.90;;;;;;5027888;28;20204;-23
2022/01/05 06:43:50;;;;;;;11.10;2.53;;;4.40;99.90;;;;;;5027516;28;20691;-23
2022/01/05 06:46:20;;;;;;;12.17;2.40;;;4.40;99.90;;;;;;5027488;28;20211;-23
2022/01/05 06:48:47;;;;;;;9.57;2.50;;;4.50;99.90;;;;;;5027094;28;20252;-23
2022/01/05 06:51:15;;;;;;;12.07;2.97;;;4.50;99.90;;;;;;5008179;28;20684;-23
2022/01/05 06:53:42;;;;;;;8.90;2.53;;;4.50;99.90;;;;;;5007316;28;20275;-23
2022/01/05 06:56:09;;;;;;;10.00;1.97;;;4.50;99.90;;;;;;5007359;28;20220;-23
2022/01/05 06:58:36;;;;;;;13.60;2.40;;;4.50;99.90;;;;;;5006668;28;20221;-23
2022/01/05 07:01:06;;;;;;;7.67;2.37;;;4.50;99.90;;;;;;5007743;28;20225;-23
2022/01/05 07:03:33;;;;;;;9.50;2.33;;;4.50;99.90;;;;;;5004722;28;20256;-23
2022/01/05 07:06:00;;;;;;;11.07;2.47;;;4.50;99.90;;;;;;5000789;28;20244;-23
2022/01/05 07:08:27;;;;;;;13.03;2.40;;;4.60;99.90;;;;;;4999036;28;20198;-23
2022/01/05 07:10:57;;;;;;;10.20;2.30;;;4.60;99.90;;;;;;5007540;28;20994;-23
2022/01/05 07:13:24;;;;;;;9.90;2.30;;;4.60;99.90;;;;;;5006837;28;20305;-23
2022/01/05 07:15:54;;;;;;;7.10;1.87;;;4.60;99.90;;;;;;5006776;28;20198;-23
2022/01/05 07:18:21;;;;;;;5.80;2.03;;;4.60;99.90;;;;;;5007194;28;20205;-23
2022/01/05 07:20:48;;;;;;;13.47;2.73;;;4.60;99.90;;;;;;5007116;28;20205;-23
2022/01/05 07:23:15;;;;;;;9.60;2.20;;;4.70;99.90;;;;;;5007291;28;20307;-23
2022/01/05 07:25:43;;;;;;;9.97;2.30;;;4.70;99.90;;;;;;5004237;28;20206;-23
2022/01/05 07:28:10;;;;;;;7.70;2.20;;;4.70;99.90;;;;;;5006462;28;20208;-23
2022/01/05 07:30:37;;;;;;;8.63;2.37;;;4.70;99.90;;;;;;5003823;28;20209;-23
2022/01/05 07:33:05;;;;;;;7.73;2.30;;;4.70;99.90;;;;;;4998936;28;20209;-23
2022/01/05 07:35:32;;;;;;;9.70;2.80;;;4.70;99.90;;;;;;5007177;28;20771;-23
2022/01/05 07:38:02;;;;;;;16.63;2.90;;;4.80;99.90;;;;;;5007273;28;20225;-23
2022/01/05 07:40:29;;;;;;;10.67;2.50;;;4.80;99.90;;;;;;5006215;28;20224;-23
2022/01/05 07:42:57;;;;;;;11.37;2.33;;;4.80;99.90;;;;;;5004945;28;20232;-23
2022/01/05 07:45:27;;;;;;;10.10;2.33;;;4.80;99.90;;;;;;4997528;28;20206;-23
2022/01/05 07:47:54;;;;;;;10.03;2.30;;;4.80;99.90;;;;;;5001646;28;20213;-23
2022/01/05 07:50:21;;;;;;;13.20;2.53;;;4.90;99.90;;;;;;5019511;28;20233;-23
2022/01/05 07:52:49;;;;;;;14.60;2.87;;;4.90;99.90;;;;;;5058140;28;20212;-23
2022/01/05 07:55:16;;;;;;;14.33;3.10;;;4.90;99.90;;;;;;5026107;28;20626;-23
2022/01/05 07:57:43;;;;;;;9.43;2.37;;;4.90;99.90;;;;;;5024553;28;20792;-23
2022/01/05 08:00:31;;;;;;;9.33;2.33;;;4.90;99.90;;;;;;5025451;28;20251;-23
2022/01/05 08:02:58;;;;;;;10.83;2.77;;;4.90;99.90;;;;;;5025300;28;20200;-23
2022/01/05 08:05:26;;;;;;;7.67;2.23;;;4.90;99.90;;;;;;5025853;28;20251;-23
2022/01/05 08:07:53;;;;;;;12.10;2.53;;;5.00;99.90;;;;;;5026071;28;20197;-23
2022/01/05 08:10:23;;;;;;;11.80;2.43;;;5.00;99.90;;;;;;5027208;28;20221;-23
2022/01/05 08:12:53;;;;;;;10.27;2.30;;;5.00;99.90;;;;;;5029757;28;20578;-23
2022/01/05 08:15:20;;;;;;;13.83;2.40;;;5.10;99.90;;;;;;5030209;28;20201;-23
2022/01/05 08:17:50;;;;;;;9.23;2.67;;;5.10;99.90;;;;;;5032169;28;20832;-23
2022/01/05 08:20:19;;;;;;;14.37;2.70;;;5.10;99.90;;;;;;5020151;28;20573;-23
2022/01/05 08:22:46;;;;;;;10.13;2.80;;;5.10;99.90;;;;;;5029575;28;20208;-23
2022/01/05 08:25:16;;;;;;;12.07;3.13;;;5.10;99.90;;;;;;5030554;28;20224;-25
2022/01/05 08:27:47;;;;;;;15.10;2.60;;;5.10;99.90;;;;;;5029993;28;20707;-26
2022/01/05 08:30:23;;;;;;;8.87;2.43;;;5.10;99.90;;;;;;5030070;28;20222;-26
2022/01/05 08:32:52;;;;;;;11.80;3.13;;;5.20;99.90;;;;;;5043765;28;20205;-26
2022/01/05 08:35:22;;;;;;;15.10;3.33;;;5.20;99.90;;;;;;5030334;28;20243;-26
2022/01/05 08:37:52;;;;;;;12.97;2.90;;;5.20;99.90;;;;;;5029102;28;20211;-26
2022/01/05 08:40:22;;;;;;;9.13;2.70;;;5.20;99.90;;;;;;5029105;28;20776;-26
2022/01/05 08:42:53;;;;;;;11.93;2.43;;;5.20;99.90;;;;;;5021282;28;20201;-23
2022/01/05 08:45:21;;;;;;;10.00;2.50;;;5.30;99.90;;;;;;5025884;28;20205;-23
2022/01/05 08:47:50;;;;;;;15.80;3.23;;;5.30;99.90;;;;;;5024824;28;20713;-23
2022/01/05 08:50:20;;;;;;;10.50;3.03;;;5.30;99.90;;;;;;5028370;28;20236;-23
2022/01/05 08:52:48;;;;;;;10.23;2.77;;;5.30;99.90;;;;;;5028833;28;20212;-23
2022/01/05 08:55:25;;;;;;;8.13;2.70;;;5.40;99.90;;;;;;5020929;28;20338;-23
2022/01/05 08:57:54;;;;;;;10.47;2.67;;;5.40;99.90;;;;;;5031577;28;20696;-23
2022/01/05 09:00:21;;;;;;;12.83;2.70;;;5.40;99.90;;;;;;5023405;28;20224;-23
2022/01/05 09:02:49;;;;;;;11.37;2.50;;;5.40;99.90;;;;;;5038373;28;20223;-23
2022/01/05 09:05:24;;;;;;;11.83;2.53;;;5.40;99.90;;;;;;5029619;28;20239;-23
2022/01/05 09:07:51;;;;;;;13.97;3.23;;;5.40;99.90;;;;;;5027257;28;20283;-23
2022/01/05 09:10:18;;;;;;;9.67;2.10;;;5.50;99.90;;;;;;5028265;28;20766;-23
2022/01/05 09:12:46;;;;;;;10.77;2.53;;;5.50;99.90;;;;;;5021274;28;20537;-23
2022/01/05 09:15:13;;;;;;;13.40;2.70;;;5.50;99.90;;;;;;5028969;28;20278;-23
2022/01/05 09:17:40;;;;;;;11.87;3.63;;;5.60;99.90;;;;;;5023568;28;20209;-23
2022/01/05 09:20:08;;;;;;;13.33;3.13;;;5.60;99.90;;;;;;5029023;28;20596;-23
2022/01/05 09:22:41;;;;;;;13.27;3.37;;;5.60;99.90;;;;;;5028158;28;20196;-23
2022/01/05 09:25:11;;;;;;;9.90;2.80;;;5.60;99.90;;;;;;5025792;28;20209;-23
2022/01/05 09:27:42;;;;;;;11.20;2.60;;;5.60;99.90;;;;;;5027256;28;20212;-23
2022/01/05 09:30:11;;;;;;;12.63;2.67;;;5.70;99.90;;;;;;5026508;28;20223;-23
2022/01/05 09:32:39;;;;;;;10.47;2.23;;;5.70;99.90;;;;;;5027368;28;20204;-23
2022/01/05 09:35:10;;;;;;;12.43;2.90;;;5.70;99.90;;;;;;5028716;28;22372;-23
2022/01/05 09:37:50;;;;;;;10.77;2.57;;;5.70;99.90;;;;;;5027719;28;20223;-23
2022/01/05 09:43:07;;;;;;;11.40;2.77;;;5.80;99.90;;;;;;5026247;28;20205;-23
2022/01/05 09:45:42;;;;;;;14.73;3.40;;;5.80;99.90;;;;;;5025054;28;20296;-23
2022/01/05 09:48:47;;;;;;;14.27;2.73;;;5.80;99.90;;;;;;5041679;28;20204;-23
2022/01/05 09:51:19;;;;;;;12.70;2.80;;;5.90;99.90;;;;;;5026930;28;20228;-23
2022/01/05 09:53:49;;;;;;;9.70;2.50;;;5.90;99.90;;;;;;5030214;28;20298;-23
2022/01/05 09:56:38;;;;;;;8.43;2.43;;;5.90;99.90;;;;;;5027642;28;20212;-25
2022/01/05 09:59:25;;;;;;;10.17;2.83;;;5.90;99.90;;;;;;5026874;28;20315;-23
2022/01/05 10:02:04;;;;;;;11.67;3.07;;;6.00;99.90;;;;;;5026835;28;20188;-23
2022/01/05 10:04:32;;;;;;;10.37;3.27;;;6.00;99.90;;;;;;5027139;28;20584;-23
2022/01/05 10:07:03;;;;;;;13.60;3.03;;;6.10;99.90;;;;;;5023796;28;20201;-23
2022/01/05 10:09:30;;;;;;;10.63;2.67;;;6.10;99.90;;;;;;5025587;28;20209;-23
2022/01/05 10:11:57;;;;;;;13.60;3.23;;;6.10;99.90;;;;;;5025593;28;20583;-23
2022/01/05 10:14:24;;;;;;;12.00;2.70;;;6.20;99.90;;;;;;5024713;28;20204;-23
2022/01/05 10:17:07;;;;;;;12.57;2.70;;;6.20;99.90;;;;;;5027586;28;20209;-23
2022/01/05 10:19:37;;;;;;;17.77;3.30;;;6.20;99.90;;;;;;5027019;28;20588;-23
2022/01/05 10:22:27;;;;;;;11.13;2.87;;;6.20;99.90;;;;;;5027102;28;20207;-23
2022/01/05 10:24:56;;;;;;;15.27;3.50;;;6.30;99.90;;;;;;5028014;28;20702;-23
2022/01/05 10:27:25;;;;;;;10.97;3.10;;;6.30;99.90;;;;;;5027160;28;20197;-23
2022/01/05 10:29:54;;;;;;;13.63;3.27;;;6.30;99.90;;;;;;5026215;28;20722;-23
2022/01/05 10:32:23;;;;;;;8.90;2.50;;;6.30;99.90;;;;;;5025248;28;20211;-23
2022/01/05 10:35:05;;;;;;;11.50;3.10;;;6.30;99.90;;;;;;5027555;28;20710;-23
2022/01/05 10:37:39;;;;;;;10.67;3.07;;;6.30;99.90;;;;;;5027734;28;20579;-23
2022/01/05 10:40:19;;;;;;;11.60;2.87;;;6.40;99.90;;;;;;5026553;28;20226;-23
2022/01/05 10:42:55;;;;;;;10.73;2.90;;;6.40;99.90;;;;;;5022598;28;20288;-23
2022/01/05 10:45:41;;;;;;;11.63;2.73;;;6.40;99.90;;;;;;5057988;28;20219;-23
2022/01/05 10:48:14;;;;;;;12.97;2.70;;;6.50;99.90;;;;;;5038338;28;20203;-23
2022/01/05 10:50:45;;;;;;;15.57;3.00;;;6.50;99.90;;;;;;5031076;28;20239;-23
2022/01/05 10:53:19;;;;;;;14.13;3.13;;;6.60;99.90;;;;;;5025674;28;20205;-23
2022/01/05 10:55:51;;;;;;;7.77;2.77;;;6.60;99.90;;;;;;5020675;28;20580;-23
2022/01/05 10:58:19;;;;;;;11.57;2.87;;;6.60;99.90;;;;;;5020991;28;20211;-23
2022/01/05 11:00:54;;;;;;;12.40;3.33;;;6.60;99.90;;;;;;5022044;28;20231;-23
2022/01/05 11:03:30;;;;;;;11.03;2.90;;;6.70;99.90;;;;;;5020500;28;20197;-23
2022/01/05 11:06:06;;;;;;;17.87;3.87;;;6.70;99.90;;;;;;5020439;28;20200;-23
2022/01/05 11:08:45;;;;;;;15.13;3.53;;;6.80;99.90;;;;;;5020564;28;20240;-23
2022/01/05 11:11:37;;;;;;;19.23;3.37;;;6.80;99.90;;;;;;5018602;28;20204;-23
2022/01/05 11:14:12;;;;;;;13.37;3.27;;;6.80;99.90;;;;;;5023406;28;20312;-23
2022/01/05 11:16:43;;;;;;;10.93;2.80;;;6.90;99.90;;;;;;5028396;28;20672;-23
2022/01/05 11:19:19;;;;;;;16.23;4.63;;;6.90;99.90;;;;;;5024717;28;20215;-23
2022/01/05 11:22:05;;;;;;;10.67;3.40;;;6.90;99.90;;;;;;5034396;28;20216;-23
2022/01/05 11:24:48;;;;;;;10.03;2.80;;;7.00;99.90;;;;;;5027206;28;20227;-23
2022/01/05 11:27:16;;;;;;;11.43;2.87;;;7.00;99.90;;;;;;5028033;28;20279;-23
2022/01/05 11:29:44;;;;;;;14.20;3.67;;;7.00;99.90;;;;;;5025577;28;20573;-23
2022/01/05 11:32:14;;;;;;;16.23;3.40;;;7.00;99.90;;;;;;5026351;28;20211;-26
2022/01/05 11:34:42;;;;;;;12.67;3.23;;;7.10;99.90;;;;;;5024967;28;20324;-26
2022/01/05 11:37:10;;;;;;;10.37;3.37;;;7.10;99.90;;;;;;5024795;28;20209;-26
2022/01/05 11:39:57;;;;;;;15.13;3.00;;;7.10;99.90;;;;;;5023478;28;20212;-25
2022/01/05 11:42:37;;;;;;;12.60;3.40;;;7.10;99.90;;;;;;5025813;28;20201;-26
2022/01/05 11:45:08;;;;;;;14.80;3.50;;;7.20;99.90;;;;;;5019839;28;20193;-26
2022/01/05 11:47:38;;;;;;;14.17;3.30;;;7.20;99.90;;;;;;5057397;28;20645;-26
2022/01/05 11:50:26;;;;;;;10.03;3.13;;;7.30;99.90;;;;;;5025627;28;20789;-26
2022/01/05 11:53:07;;;;;;;12.17;2.87;;;7.30;99.90;;;;;;5033974;28;20687;-25
2022/01/05 11:55:59;;;;;;;14.97;3.10;;;7.30;99.90;;;;;;5025559;28;20599;-25
2022/01/05 11:58:28;;;;;;;15.30;3.00;;;7.30;99.90;;;;;;5029754;28;20699;-26
2022/01/05 12:01:18;;;;;;;14.17;3.00;;;7.30;99.90;;;;;;5033571;28;20217;-26
2022/01/05 12:03:57;;;;;;;13.17;2.90;;;7.30;99.90;;;;;;5030738;28;20567;-25
2022/01/05 12:06:37;;;;;;;11.63;2.97;;;7.40;99.90;;;;;;5045279;28;20649;-26
2022/01/05 12:09:18;;;;;;;12.17;3.20;;;7.40;99.90;;;;;;5047039;28;20894;-26
2022/01/05 12:11:45;;;;;;;13.10;3.73;;;7.40;99.90;;;;;;5011495;28;20205;-25
2022/01/05 12:14:21;;;;;;;14.27;3.43;;;7.40;99.90;;;;;;5029972;28;20200;-26
2022/01/05 12:17:01;;;;;;;14.23;2.87;;;7.50;99.90;;;;;;5027615;28;20331;-26
2022/01/05 12:19:48;;;;;;;16.30;3.67;;;7.50;99.90;;;;;;5034945;28;20204;-25
2022/01/05 12:22:25;;;;;;;16.40;3.20;;;7.50;99.90;;;;;;5050528;28;20295;-26
2022/01/05 12:25:04;;;;;;;14.57;3.43;;;7.50;99.90;;;;;;5030484;28;20216;-26
2022/01/05 12:27:37;;;;;;;12.00;3.17;;;7.60;99.90;;;;;;5027817;28;20227;-26
2022/01/05 12:30:10;;;;;;;13.37;2.90;;;7.50;99.90;;;;;;5042536;28;20197;-26
2022/01/05 12:32:44;;;;;;;15.10;3.20;;;7.60;99.90;;;;;;5026687;28;20296;-26
2022/01/05 12:35:14;;;;;;;11.97;2.90;;;7.60;99.90;;;;;;5043103;28;20213;-26
2022/01/05 12:38:06;;;;;;;12.77;2.90;;;7.60;99.90;;;;;;5025007;28;20244;-25
2022/01/05 12:40:46;;;;;;;12.40;2.57;;;7.60;99.90;;;;;;5026441;28;20715;-25
2022/01/05 12:43:18;;;;;;;16.20;3.57;;;7.60;99.90;;;;;;5026223;28;20571;-26
2022/01/05 12:45:59;;;;;;;15.30;2.60;;;7.60;99.90;;;;;;5029647;28;20197;-26
2022/01/05 12:48:32;;;;;;;14.73;2.70;;;7.70;99.90;;;;;;5029170;28;20201;-26
2022/01/05 12:51:11;;;;;;;14.03;3.20;;;7.70;99.90;;;;;;5027913;28;20248;-26
2022/01/05 12:54:07;;;;;;;13.60;2.67;;;7.70;99.90;;;;;;5028425;28;20291;-25
2022/01/05 12:56:44;;;;;;;13.30;3.37;;;7.70;99.90;;;;;;5026154;28;20212;-25
2022/01/05 12:59:49;;;;;;;15.27;3.00;;;7.70;99.90;;;;;;5028110;28;20200;-26
2022/01/05 13:02:27;;;;;;;10.90;2.43;;;7.70;99.90;;;;;;5027592;28;20262;-26
2022/01/05 13:05:00;;;;;;;11.33;2.37;;;7.70;99.90;;;;;;5029773;28;20232;-26
2022/01/05 13:07:29;;;;;;;13.10;2.80;;;7.80;99.90;;;;;;5028068;28;20217;-25
2022/01/05 13:09:59;;;;;;;12.70;2.63;;;7.80;99.90;;;;;;5012541;28;20756;-25
2022/01/05 13:12:30;;;;;;;13.63;2.30;;;7.80;99.90;;;;;;5029753;28;20585;-26